Erofej Pavlovic, Russia
Current Conditions -  °F | °C
As of 11:30 AM on Saturday 22 Nov 2014 (Local Time) from UHBB Reporting Station
Clear Clear  
Wind Chill:   Ceiling: Unl
Heat Index: 14°   Visibility: 6mi
Dew Point:   Wind: 7mph
Humidity: 79%   Direction: 270°W
Pressure: 30.03"   Gusts: NA
Location:  53.97°N, 121.93°E
Report Text: UHBB 220230Z 27003MPS 240V300 CAVOK M10/M13 Q1017 NOSIG RMKQFE745/0994 36450350
Loading
Personal Weather Stations






























Interactive Weather Map New forecast layout! Learn more

10-Day Weather Forecast

Advertisements
Track Severe Weather on mobile